Time;durP1;ratioP1;P1;durP2;ratioP2;P2;SDS_P1;SDS_P2;PMS_P1;PMS_P2;Temp;Humidity;BMP_temperature;BMP_pressure;BME280_temperature;BME280_humidity;BME280_pressure;Samples;Min_cycle;Max_cycle;Signal;HPM_P1;HPM_P2
2023/05/25 00:02:13;;;;;;;;;;;;;;;18.44;100.00;102446.97;5057250;28;19913;-55
2023/05/25 00:04:40;;;;;;;;;;;;;;;18.42;100.00;102443.63;5059369;28;20064;-54
2023/05/25 00:07:05;;;;;;;;;;;;;;;18.01;100.00;102445.47;5056703;28;19924;-55
2023/05/25 00:09:30;;;;;;;;;;;;;;;18.04;100.00;102447.78;5053418;28;19924;-55
2023/05/25 00:11:58;;;;;;;;;;;;;;;18.12;100.00;102442.16;5055544;28;19952;-55
2023/05/25 00:14:24;;;;;;;;;;;;;;;18.17;100.00;102442.38;5053369;28;19924;-53
2023/05/25 00:16:50;;;;;;;;;;;;;;;18.05;100.00;102449.47;5054041;28;19928;-55
2023/05/25 00:19:17;;;;;;;;;;;;;;;18.11;100.00;102440.50;5055707;28;20001;-53
2023/05/25 00:21:44;;;;;;;;;;;;;;;18.10;100.00;102436.13;5053500;28;19924;-52
2023/05/25 00:24:10;;;;;;;;;;;;;;;18.03;100.00;102446.94;5056942;28;19916;-52
2023/05/25 00:26:35;;;;;;;;;;;;;;;18.05;100.00;102444.03;5055549;28;19913;-54
2023/05/25 00:29:01;;;;;;;;;;;;;;;18.08;100.00;102443.63;5057125;28;19936;-56
2023/05/25 00:31:28;;;;;;;;;;;;;;;17.98;100.00;102443.16;5038895;28;19912;-55
2023/05/25 00:33:53;;;;;;;;;;;;;;;18.08;100.00;102442.78;5038173;28;19928;-54
2023/05/25 00:36:18;;;;;;;;;;;;;;;18.03;100.00;102462.38;5039808;28;19917;-55
2023/05/25 00:38:44;;;;;;;;;;;;;;;17.96;100.00;102456.06;5055291;28;19913;-54
2023/05/25 00:41:11;;;;;;;;;;;;;;;17.66;100.00;102448.28;5053467;28;20059;-54
2023/05/25 00:43:37;;;;;;;;;;;;;;;17.74;100.00;102453.50;5035911;28;19916;-53
2023/05/25 00:46:02;;;;;;;;;;;;;;;17.86;100.00;102449.19;5056145;28;19924;-54
2023/05/25 00:48:28;;;;;;;;;;;;;;;17.93;100.00;102457.31;5037494;28;19976;-52
2023/05/25 00:50:56;;;;;;;;;;;;;;;17.80;100.00;102447.31;5038944;28;19935;-54
2023/05/25 00:53:22;;;;;;;;;;;;;;;17.82;100.00;102455.19;5057814;28;19912;-56
2023/05/25 00:56:07;;;;;;;;;;;;;;;17.81;100.00;102456.25;5035323;28;19963;-55
2023/05/25 00:58:34;;;;;;;;;;;;;;;17.75;100.00;102449.78;5056751;28;19913;-54
2023/05/25 01:01:00;;;;;;;;;;;;;;;17.68;100.00;102447.06;5054904;28;19940;-54
2023/05/25 01:03:29;;;;;;;;;;;;;;;17.71;100.00;102449.38;5037202;28;19927;-54
2023/05/25 01:05:56;;;;;;;;;;;;;;;17.70;100.00;102446.84;5055924;28;19913;-54
2023/05/25 01:08:23;;;;;;;;;;;;;;;17.72;100.00;102442.06;5058447;28;19913;-51
2023/05/25 01:10:51;;;;;;;;;;;;;;;17.70;100.00;102452.25;5055970;28;19924;-51
2023/05/25 01:13:18;;;;;;;;;;;;;;;17.69;100.00;102450.59;5038035;28;19930;-53
2023/05/25 01:15:44;;;;;;;;;;;;;;;17.70;100.00;102460.38;5030923;28;19913;-54
2023/05/25 01:18:13;;;;;;;;;;;;;;;17.56;100.00;102451.38;5060844;28;19920;-52
2023/05/25 01:21:00;;;;;;;;;;;;;;;17.55;100.00;102452.44;5053242;28;19913;-54
2023/05/25 01:23:29;;;;;;;;;;;;;;;17.50;100.00;102458.44;5041938;28;19923;-53
2023/05/25 01:25:58;;;;;;;;;;;;;;;17.51;100.00;102460.09;5041420;28;19913;-53
2023/05/25 01:28:34;;;;;;;;;;;;;;;17.46;100.00;102462.59;5059419;28;19948;-51
2023/05/25 01:31:01;;;;;;;;;;;;;;;17.32;100.00;102467.09;5054503;28;19948;-53
2023/05/25 01:33:27;;;;;;;;;;;;;;;17.42;100.00;102461.31;5053203;28;19923;-51
2023/05/25 01:35:53;;;;;;;;;;;;;;;17.41;100.00;102471.28;5056291;28;19917;-55
2023/05/25 01:38:18;;;;;;;;;;;;;;;17.36;100.00;102468.38;5057510;28;19931;-53
2023/05/25 01:40:43;;;;;;;;;;;;;;;17.39;100.00;102475.25;5054692;28;19913;-51
2023/05/25 01:43:09;;;;;;;;;;;;;;;17.34;100.00;102476.69;5043984;28;19917;-53
2023/05/25 01:45:35;;;;;;;;;;;;;;;17.42;100.00;102475.69;5059545;28;19913;-50
2023/05/25 01:48:11;;;;;;;;;;;;;;;17.39;100.00;102483.38;5041816;28;19913;-52
2023/05/25 01:50:48;;;;;;;;;;;;;;;17.39;100.00;102484.19;5059232;28;19943;-52
2023/05/25 01:53:17;;;;;;;;;;;;;;;17.36;100.00;102489.19;5041823;28;19920;-52
2023/05/25 01:55:52;;;;;;;;;;;;;;;17.27;100.00;102486.63;5058934;28;19917;-51
2023/05/25 01:58:18;;;;;;;;;;;;;;;17.32;100.00;102489.59;5045338;28;19992;-53
2023/05/25 02:00:45;;;;;;;;;;;;;;;17.32;100.00;102492.28;5046044;28;19959;-55
2023/05/25 02:03:11;;;;;;;;;;;;;;;17.25;100.00;102477.88;5057624;28;19931;-55
2023/05/25 02:05:40;;;;;;;;;;;;;;;17.10;100.00;102483.41;5038880;28;19984;-55
2023/05/25 02:08:05;;;;;;;;;;;;;;;17.00;100.00;102483.78;5015103;28;19973;-55
2023/05/25 02:10:30;;;;;;;;;;;;;;;17.02;100.00;102480.88;5016022;28;19914;-54
2023/05/25 02:12:56;;;;;;;;;;;;;;;16.99;100.00;102478.59;5018314;28;20364;-53
2023/05/25 02:15:21;;;;;;;;;;;;;;;16.98;100.00;102480.44;5019054;28;19913;-51
2023/05/25 02:17:47;;;;;;;;;;;;;;;16.91;100.00;102476.84;5015739;28;19982;-47
2023/05/25 02:20:12;;;;;;;;;;;;;;;16.78;100.00;102472.19;5015957;28;20102;-50
2023/05/25 02:22:37;;;;;;;;;;;;;;;16.84;100.00;102476.78;5016889;28;19913;-50
2023/05/25 02:25:07;;;;;;;;;;;;;;;16.80;100.00;102474.66;5016501;28;19914;-51
2023/05/25 02:27:33;;;;;;;;;;;;;;;16.71;100.00;102482.94;5014752;28;19917;-51
2023/05/25 02:29:58;;;;;;;;;;;;;;;16.70;100.00;102475.00;5020980;28;19945;-51
2023/05/25 02:32:25;;;;;;;;;;;;;;;16.78;100.00;102474.88;5017934;28;19914;-49
2023/05/25 02:34:50;;;;;;;;;;;;;;;16.78;100.00;102470.28;5015584;28;19917;-49
2023/05/25 02:37:16;;;;;;;;;;;;;;;16.81;100.00;102470.94;5020369;28;19997;-52
2023/05/25 02:39:42;;;;;;;;;;;;;;;16.74;100.00;102477.13;5020045;28;19984;-50
2023/05/25 02:42:07;;;;;;;;;;;;;;;16.72;100.00;102473.78;5020986;28;19913;-51
2023/05/25 02:44:33;;;;;;;;;;;;;;;16.75;100.00;102472.56;5015959;28;19929;-49
2023/05/25 02:46:59;;;;;;;;;;;;;;;16.76;100.00;102479.66;5013132;28;19945;-50
2023/05/25 02:49:24;;;;;;;;;;;;;;;16.67;100.00;102480.81;5016065;28;19913;-52
2023/05/25 02:51:50;;;;;;;;;;;;;;;16.67;100.00;102484.38;5015758;28;19920;-50
2023/05/25 02:54:16;;;;;;;;;;;;;;;16.71;100.00;102491.03;5021085;28;19949;-50
2023/05/25 02:56:41;;;;;;;;;;;;;;;16.62;100.00;102490.34;5018405;28;19977;-52
2023/05/25 02:59:06;;;;;;;;;;;;;;;16.59;100.00;102496.13;5020071;28;19921;-52
2023/05/25 03:01:33;;;;;;;;;;;;;;;16.70;100.00;102497.47;5022328;28;20074;-51
2023/05/25 03:03:59;;;;;;;;;;;;;;;16.59;100.00;102500.69;5021214;28;19933;-54
2023/05/25 03:06:25;;;;;;;;;;;;;;;16.49;100.00;102496.47;5015099;28;19914;-52
2023/05/25 03:08:55;;;;;;;;;;;;;;;16.32;100.00;102492.38;5041387;28;19928;-53
2023/05/25 03:11:21;;;;;;;;;;;;;;;16.45;100.00;102495.19;5044743;28;19972;-55
2023/05/25 03:13:47;;;;;;;;;;;;;;;16.47;100.00;102497.69;5037500;28;19935;-51
2023/05/25 03:16:13;;;;;;;;;;;;;;;16.48;100.00;102493.94;5039854;28;19956;-54
2023/05/25 03:18:39;;;;;;;;;;;;;;;16.26;100.00;102495.84;5040196;28;19924;-55
2023/05/25 03:21:04;;;;;;;;;;;;;;;16.34;100.00;102499.25;5061273;28;19944;-53
2023/05/25 03:23:30;;;;;;;;;;;;;;;16.34;100.00;102498.41;5055631;28;19959;-56
2023/05/25 03:25:57;;;;;;;;;;;;;;;16.44;100.00;102498.06;5037817;28;19913;-53
2023/05/25 03:28:23;;;;;;;;;;;;;;;16.35;100.00;102494.66;5038160;28;19923;-55
2023/05/25 03:30:48;;;;;;;;;;;;;;;16.36;100.00;102498.22;5041186;28;19913;-55
2023/05/25 03:33:14;;;;;;;;;;;;;;;16.27;100.00;102494.81;5055861;28;19925;-54
2023/05/25 03:35:44;;;;;;;;;;;;;;;16.22;100.00;102505.38;5037423;28;19912;-56
2023/05/25 03:38:10;;;;;;;;;;;;;;;16.27;100.00;102508.31;5037504;28;19917;-53
2023/05/25 03:40:35;;;;;;;;;;;;;;;16.26;100.00;102507.50;5039586;28;19935;-55
2023/05/25 03:43:01;;;;;;;;;;;;;;;16.25;100.00;102511.19;5054631;28;19918;-55
2023/05/25 03:45:27;;;;;;;;;;;;;;;16.25;100.00;102504.97;5024134;28;19935;-55
2023/05/25 03:47:52;;;;;;;;;;;;;;;16.23;100.00;102517.81;5038420;28;19913;-56
2023/05/25 03:50:19;;;;;;;;;;;;;;;16.28;100.00;102515.38;5040480;28;19945;-53
2023/05/25 03:52:44;;;;;;;;;;;;;;;16.30;100.00;102519.56;5036459;28;20280;-53
2023/05/25 03:55:10;;;;;;;;;;;;;;;16.33;100.00;102512.94;5056127;28;19936;-51
2023/05/25 03:57:35;;;;;;;;;;;;;;;16.45;100.00;102524.06;5038445;28;19924;-50
2023/05/25 04:00:01;;;;;;;;;;;;;;;16.48;100.00;102527.22;5056524;28;19913;-50
2023/05/25 04:02:26;;;;;;;;;;;;;;;16.34;100.00;102530.78;5039024;28;19921;-52
2023/05/25 04:04:55;;;;;;;;;;;;;;;16.36;100.00;102531.44;5057900;28;19921;-52
2023/05/25 04:07:20;;;;;;;;;;;;;;;16.36;100.00;102528.75;5037952;28;19931;-52
2023/05/25 04:09:45;;;;;;;;;;;;;;;16.30;100.00;102532.22;5055660;28;19917;-49
2023/05/25 04:12:11;;;;;;;;;;;;;;;16.35;100.00;102537.88;5056971;28;19917;-51
2023/05/25 04:14:37;;;;;;;;;;;;;;;16.39;100.00;102536.47;5040796;28;19949;-52
2023/05/25 04:17:03;;;;;;;;;;;;;;;16.46;100.00;102540.06;5037491;28;19928;-49
2023/05/25 04:19:28;;;;;;;;;;;;;;;16.51;100.00;102538.66;5037181;28;19916;-49
2023/05/25 04:21:54;;;;;;;;;;;;;;;16.56;100.00;102538.91;5036947;28;20012;-50
2023/05/25 04:24:20;;;;;;;;;;;;;;;16.52;100.00;102537.63;5036559;28;19924;-52
2023/05/25 04:26:48;;;;;;;;;;;;;;;16.58;100.00;102537.69;5039535;28;19950;-49
2023/05/25 04:29:14;;;;;;;;;;;;;;;16.49;100.00;102536.97;5036560;28;19943;-55
2023/05/25 04:32:16;;;;;;;;;;;;;;;16.56;100.00;102538.91;5012728;28;19977;-50
2023/05/25 04:34:47;;;;;;;;;;;;;;;16.70;100.00;102535.28;5030147;28;19913;-52
2023/05/25 04:37:18;;;;;;;;;;;;;;;16.70;100.00;102543.41;5038496;28;19944;-54
2023/05/25 04:39:44;;;;;;;;;;;;;;;16.69;100.00;102536.31;5059351;28;19913;-55
2023/05/25 04:42:11;;;;;;;;;;;;;;;16.75;100.00;102548.22;5040574;28;19917;-53
2023/05/25 04:44:38;;;;;;;;;;;;;;;16.66;100.00;102550.22;5057076;28;19928;-52
2023/05/25 04:47:06;;;;;;;;;;;;;;;16.80;100.00;102550.31;5041461;28;19920;-55
2023/05/25 04:49:32;;;;;;;;;;;;;;;16.89;100.00;102549.16;5057443;28;19923;-50
2023/05/25 04:51:58;;;;;;;;;;;;;;;17.00;100.00;102551.34;5055775;28;19913;-53
2023/05/25 04:54:26;;;;;;;;;;;;;;;17.02;100.00;102548.44;5036183;28;19920;-51
2023/05/25 04:56:52;;;;;;;;;;;;;;;17.08;100.00;102550.34;5041953;28;19913;-49
2023/05/25 04:59:18;;;;;;;;;;;;;;;17.10;100.00;102566.41;5054080;28;19913;-51
2023/05/25 05:01:45;;;;;;;;;;;;;;;17.18;100.00;102560.81;5036637;28;19947;-54
2023/05/25 05:04:15;;;;;;;;;;;;;;;17.19;100.00;102565.19;5038250;28;20035;-54
2023/05/25 05:06:41;;;;;;;;;;;;;;;17.13;100.00;102572.22;5032927;28;19949;-52
2023/05/25 05:09:10;;;;;;;;;;;;;;;17.13;100.00;102571.41;5055050;28;19916;-50
2023/05/25 05:11:36;;;;;;;;;;;;;;;17.25;100.00;102579.81;5061133;28;19912;-54
2023/05/25 05:14:04;;;;;;;;;;;;;;;17.38;100.00;102581.75;5039291;28;19936;-49
2023/05/25 05:16:33;;;;;;;;;;;;;;;17.46;100.00;102584.28;5040269;28;19913;-51
2023/05/25 05:18:59;;;;;;;;;;;;;;;17.33;100.00;102587.75;5039607;28;19939;-52
2023/05/25 05:21:25;;;;;;;;;;;;;;;17.39;100.00;102588.84;5042299;28;19924;-53
2023/05/25 05:23:50;;;;;;;;;;;;;;;17.50;100.00;102590.97;5041528;28;20392;-49
2023/05/25 05:26:16;;;;;;;;;;;;;;;17.58;100.00;102590.81;5042162;28;19920;-49
2023/05/25 05:28:42;;;;;;;;;;;;;;;17.59;100.00;102592.50;5039792;28;19912;-50
2023/05/25 05:31:07;;;;;;;;;;;;;;;17.68;100.00;102597.72;5036045;28;19913;-52
2023/05/25 05:33:33;;;;;;;;;;;;;;;17.60;100.00;102594.16;5045220;28;19923;-51
2023/05/25 05:36:01;;;;;;;;;;;;;;;17.71;100.00;102600.03;5042018;28;19928;-54
2023/05/25 05:38:26;;;;;;;;;;;;;;;17.56;100.00;102601.00;5041964;28;19912;-55
2023/05/25 05:40:52;;;;;;;;;;;;;;;17.74;100.00;102605.03;5059392;28;19939;-51
2023/05/25 05:43:21;;;;;;;;;;;;;;;17.84;100.00;102608.22;5055702;28;19968;-51
2023/05/25 05:45:46;;;;;;;;;;;;;;;17.95;100.00;102611.38;5038235;28;19913;-53
2023/05/25 05:48:12;;;;;;;;;;;;;;;17.96;100.00;102608.47;5038585;28;19939;-51
2023/05/25 05:50:38;;;;;;;;;;;;;;;17.97;100.00;102618.28;5058091;28;19901;-54
2023/05/25 05:53:03;;;;;;;;;;;;;;;17.59;100.00;102603.31;5041015;28;19920;-53
2023/05/25 05:55:29;;;;;;;;;;;;;;;18.11;100.00;102610.25;5041169;28;20039;-55
2023/05/25 05:57:54;;;;;;;;;;;;;;;18.15;100.00;102611.50;5038772;28;20707;-51
2023/05/25 06:00:20;;;;;;;;;;;;;;;18.35;100.00;102611.53;5044468;28;19923;-54
2023/05/25 06:02:49;;;;;;;;;;;;;;;18.35;100.00;102619.66;5042267;28;19924;-52
2023/05/25 06:05:19;;;;;;;;;;;;;;;18.47;100.00;102626.19;5041693;28;19913;-50
2023/05/25 06:07:44;;;;;;;;;;;;;;;18.48;100.00;102627.00;5040723;28;19920;-48
2023/05/25 06:10:11;;;;;;;;;;;;;;;18.57;100.00;102627.63;5040925;28;19925;-49
2023/05/25 06:12:36;;;;;;;;;;;;;;;18.60;100.00;102630.78;5040451;28;19912;-53
2023/05/25 06:15:02;;;;;;;;;;;;;;;18.47;100.00;102631.59;5039891;28;19921;-52
2023/05/25 06:17:28;;;;;;;;;;;;;;;18.58;100.00;102632.88;5038331;28;19977;-52
2023/05/25 06:19:54;;;;;;;;;;;;;;;18.69;100.00;102628.72;5039040;28;19913;-53
2023/05/25 06:22:20;;;;;;;;;;;;;;;19.03;100.00;102637.72;5037399;28;19947;-54
2023/05/25 06:24:50;;;;;;;;;;;;;;;18.83;100.00;102640.41;5059764;28;19936;-53
2023/05/25 06:27:16;;;;;;;;;;;;;;;18.86;100.00;102642.69;5059467;28;19920;-51
2023/05/25 06:29:41;;;;;;;;;;;;;;;18.83;100.00;102637.69;5037170;28;19913;-52
2023/05/25 06:32:07;;;;;;;;;;;;;;;18.96;100.00;102644.16;5044147;28;19971;-54
2023/05/25 06:34:32;;;;;;;;;;;;;;;19.20;100.00;102645.44;5042167;28;19973;-51
2023/05/25 06:36:58;;;;;;;;;;;;;;;19.08;100.00;102650.66;5039618;28;19928;-49
2023/05/25 06:39:23;;;;;;;;;;;;;;;19.36;100.00;102649.59;5057453;28;19923;-52
2023/05/25 06:41:49;;;;;;;;;;;;;;;19.45;100.00;102652.94;5040366;28;19912;-50
2023/05/25 06:44:25;;;;;;;;;;;;;;;19.60;100.00;102653.50;5040304;28;19928;-52
2023/05/25 06:46:51;;;;;;;;;;;;;;;19.81;100.00;102669.75;5053906;28;20654;-48
2023/05/25 06:49:16;;;;;;;;;;;;;;;20.17;100.00;102666.53;5036385;28;19913;-51
2023/05/25 06:51:41;;;;;;;;;;;;;;;20.15;100.00;102668.63;5056400;28;19921;-54
2023/05/25 06:54:07;;;;;;;;;;;;;;;20.09;100.00;102669.50;5058658;28;19913;-54
2023/05/25 06:56:32;;;;;;;;;;;;;;;20.24;100.00;102673.81;5061298;28;19924;-51
2023/05/25 06:58:58;;;;;;;;;;;;;;;20.32;100.00;102679.00;5057031;28;19913;-53
2023/05/25 07:01:23;;;;;;;;;;;;;;;20.46;100.00;102671.63;5057627;28;19935;-53
2023/05/25 07:03:49;;;;;;;;;;;;;;;20.61;100.00;102672.13;5055814;28;19975;-51
2023/05/25 07:06:15;;;;;;;;;;;;;;;20.61;99.04;102676.75;5060477;28;19924;-51
2023/05/25 07:08:41;;;;;;;;;;;;;;;20.59;98.58;102670.72;5057032;28;19945;-49
2023/05/25 07:11:09;;;;;;;;;;;;;;;20.68;99.41;102665.84;5057962;28;19920;-53
2023/05/25 07:13:34;;;;;;;;;;;;;;;20.73;98.46;102666.00;5058473;28;19924;-54
2023/05/25 07:16:00;;;;;;;;;;;;;;;20.70;96.47;102670.00;5059379;28;19913;-50
2023/05/25 07:18:26;;;;;;;;;;;;;;;20.82;94.02;102672.06;5061140;28;19936;-54
2023/05/25 07:20:52;;;;;;;;;;;;;;;21.11;90.27;102672.44;5037715;28;19928;-51
2023/05/25 07:23:17;;;;;;;;;;;;;;;21.31;88.86;102681.28;5056161;28;19916;-52
2023/05/25 07:25:43;;;;;;;;;;;;;;;21.23;89.75;102678.84;5058752;28;19912;-53
2023/05/25 07:28:08;;;;;;;;;;;;;;;21.68;88.51;102677.81;5056593;28;19920;-53
2023/05/25 07:30:34;;;;;;;;;;;;;;;22.09;85.77;102686.34;5057146;28;19920;-51
2023/05/25 07:32:59;;;;;;;;;;;;;;;22.06;85.32;102692.25;5058827;28;19913;-54
2023/05/25 07:35:25;;;;;;;;;;;;;;;22.25;84.17;102700.41;5053034;28;19921;-56
2023/05/25 07:38:03;;;;;;;;;;;;;;;22.40;80.77;102695.41;5053737;28;19912;-54
2023/05/25 07:40:29;;;;;;;;;;;;;;;22.62;79.60;102695.72;5051818;28;19948;-52
2023/05/25 07:42:54;;;;;;;;;;;;;;;22.59;78.26;102687.19;5056316;28;19917;-59
2023/05/25 07:45:20;;;;;;;;;;;;;;;22.57;77.82;102694.75;5052539;28;19913;-53
2023/05/25 07:47:45;;;;;;;;;;;;;;;22.77;75.75;102698.03;5053082;28;20008;-54
2023/05/25 07:50:11;;;;;;;;;;;;;;;22.93;74.56;102695.69;5054435;28;19917;-54
2023/05/25 07:52:37;;;;;;;;;;;;;;;23.16;74.65;102694.06;5060772;28;20043;-57
2023/05/25 07:55:05;;;;;;;;;;;;;;;23.48;71.58;102697.31;5059577;28;19905;-52
2023/05/25 07:57:30;;;;;;;;;;;;;;;23.39;71.25;102703.38;5053582;28;19913;-52
2023/05/25 07:59:56;;;;;;;;;;;;;;;23.58;71.20;102706.81;5056427;28;19939;-50
2023/05/25 08:02:21;;;;;;;;;;;;;;;23.41;70.52;102709.44;5035111;28;19913;-50
2023/05/25 08:04:47;;;;;;;;;;;;;;;23.13;71.78;102710.91;5051668;28;19923;-49
2023/05/25 08:07:12;;;;;;;;;;;;;;;23.65;68.77;102717.63;5054679;28;19920;-48
2023/05/25 08:09:37;;;;;;;;;;;;;;;23.66;67.59;102722.00;5056062;28;19945;-53
2023/05/25 08:12:03;;;;;;;;;;;;;;;23.93;66.42;102727.81;5058320;28;19917;-54
2023/05/25 08:14:28;;;;;;;;;;;;;;;23.91;65.97;102733.50;5058939;28;19935;-51
2023/05/25 08:16:53;;;;;;;;;;;;;;;24.02;65.96;102739.22;5055697;28;19905;-52
2023/05/25 08:19:18;;;;;;;;;;;;;;;24.05;66.26;102736.00;5055757;28;19944;-52
2023/05/25 08:21:44;;;;;;;;;;;;;;;24.02;66.49;102736.50;5053606;28;20355;-52
2023/05/25 08:24:09;;;;;;;;;;;;;;;24.14;65.52;102737.28;5055449;28;19956;-52
2023/05/25 08:26:35;;;;;;;;;;;;;;;24.17;65.60;102736.78;5051926;28;19999;-48
2023/05/25 08:29:03;;;;;;;;;;;;;;;24.33;64.78;102732.47;5057141;28;19954;-55
2023/05/25 08:31:32;;;;;;;;;;;;;;;24.24;63.87;102736.66;5052257;28;19924;-54
2023/05/25 08:33:58;;;;;;;;;;;;;;;24.91;63.40;102745.31;5053206;28;19936;-52
2023/05/25 08:36:24;;;;;;;;;;;;;;;25.10;63.39;102745.09;5056585;28;19920;-53
2023/05/25 08:38:50;;;;;;;;;;;;;;;25.20;60.81;102742.53;5060335;28;19976;-52
2023/05/25 08:41:16;;;;;;;;;;;;;;;24.87;60.62;102749.63;5049197;28;19913;-52
2023/05/25 08:43:42;;;;;;;;;;;;;;;24.91;60.16;102745.31;5052319;28;19928;-50
2023/05/25 08:46:08;;;;;;;;;;;;;;;25.15;60.06;102742.47;5056545;28;19935;-51
2023/05/25 08:48:35;;;;;;;;;;;;;;;25.20;60.13;102742.53;5057601;28;19947;-54
2023/05/25 08:51:05;;;;;;;;;;;;;;;24.85;60.37;102752.63;5062490;28;19960;-53
2023/05/25 08:53:33;;;;;;;;;;;;;;;24.84;59.82;102752.84;5039558;28;19936;-51
2023/05/25 08:55:59;;;;;;;;;;;;;;;24.58;60.65;102746.88;5058569;28;19917;-52
2023/05/25 08:58:39;;;;;;;;;;;;;;;24.52;60.41;102751.41;5061631;28;19913;-55
2023/05/25 09:01:06;;;;;;;;;;;;;;;24.48;60.44;102747.50;5057602;28;19928;-54
2023/05/25 09:03:32;;;;;;;;;;;;;;;24.81;59.78;102756.94;5059752;28;19938;-53
2023/05/25 09:05:58;;;;;;;;;;;;;;;25.26;58.79;102752.47;5060322;28;19916;-52
2023/05/25 09:08:24;;;;;;;;;;;;;;;25.42;58.29;102747.25;5062756;28;19952;-50
2023/05/25 09:10:50;;;;;;;;;;;;;;;25.44;58.12;102745.91;5056508;28;19928;-53
2023/05/25 09:13:16;;;;;;;;;;;;;;;25.58;57.32;102743.69;5056420;28;19913;-52
2023/05/25 09:15:41;;;;;;;;;;;;;;;25.89;55.94;102746.88;5064830;28;19919;-53
2023/05/25 09:18:07;;;;;;;;;;;;;;;26.22;55.17;102751.66;5064702;28;19912;-53
2023/05/25 09:20:32;;;;;;;;;;;;;;;26.00;55.03;102752.47;5058283;28;19976;-52
2023/05/25 09:22:58;;;;;;;;;;;;;;;26.00;54.88;102755.22;5060544;28;19936;-51
2023/05/25 09:25:26;;;;;;;;;;;;;;;25.90;54.65;102758.63;5062452;28;19988;-53
2023/05/25 09:27:52;;;;;;;;;;;;;;;25.69;54.74;102757.53;5058841;28;19923;-51
2023/05/25 09:30:18;;;;;;;;;;;;;;;25.85;54.66;102748.47;5056712;28;19919;-49
2023/05/25 09:32:43;;;;;;;;;;;;;;;24.95;56.11;102757.44;5025379;28;19926;-54
2023/05/25 09:35:10;;;;;;;;;;;;;;;25.47;55.51;102755.56;5058420;28;19913;-55
2023/05/25 09:37:36;;;;;;;;;;;;;;;25.33;54.96;102760.53;5056471;28;20012;-55
2023/05/25 09:40:02;;;;;;;;;;;;;;;25.63;54.12;102754.72;5060077;28;19928;-50
2023/05/25 09:42:28;;;;;;;;;;;;;;;25.83;53.13;102750.59;5062585;28;19924;-54
2023/05/25 09:44:54;;;;;;;;;;;;;;;26.75;51.73;102755.53;5059069;28;19917;-52
2023/05/25 09:47:19;;;;;;;;;;;;;;;27.73;49.71;102746.47;5059966;28;19917;-55
2023/05/25 09:49:46;;;;;;;;;;;;;;;28.43;48.04;102754.47;5056579;28;19916;-52
2023/05/25 09:52:13;;;;;;;;;;;;;;;29.33;45.56;102748.75;5057565;28;19913;-53
2023/05/25 09:54:38;;;;;;;;;;;;;;;30.28;43.89;102746.28;5060112;28;19913;-54
2023/05/25 09:57:04;;;;;;;;;;;;;;;30.92;41.52;102751.13;5058155;28;19913;-55
2023/05/25 09:59:30;;;;;;;;;;;;;;;31.24;40.27;102751.69;5059879;28;19913;-54
2023/05/25 10:01:56;;;;;;;;;;;;;;;31.03;39.87;102760.16;5058490;28;19976;-53
2023/05/25 10:04:22;;;;;;;;;;;;;;;31.02;39.73;102761.25;5055500;28;19921;-55
2023/05/25 10:06:50;;;;;;;;;;;;;;;30.40;39.91;102751.44;5059248;28;19944;-53
2023/05/25 10:09:17;;;;;;;;;;;;;;;29.21;40.63;102746.28;5058899;28;19981;-54
2023/05/25 10:11:43;;;;;;;;;;;;;;;28.99;41.45;102754.84;5057219;28;19952;-51
2023/05/25 10:14:11;;;;;;;;;;;;;;;28.10;42.97;102750.22;5057745;28;19952;-49
2023/05/25 10:16:39;;;;;;;;;;;;;;;28.43;43.30;102748.97;5046338;28;20016;-54
2023/05/25 10:19:11;;;;;;;;;;;;;;;29.28;42.49;102741.31;5057145;28;19913;-54
2023/05/25 10:21:38;;;;;;;;;;;;;;;29.51;41.03;102744.59;5055174;28;19926;-56
2023/05/25 10:24:20;;;;;;;;;;;;;;;28.88;41.68;102743.00;5062365;28;19917;-51
2023/05/25 10:26:48;;;;;;;;;;;;;;;28.74;42.02;102748.19;5065968;28;20296;-54
2023/05/25 10:29:15;;;;;;;;;;;;;;;28.68;41.96;102755.63;5057913;28;19921;-49
2023/05/25 10:31:41;;;;;;;;;;;;;;;28.32;42.59;102753.63;5060243;28;19916;-50
2023/05/25 10:34:07;;;;;;;;;;;;;;;27.64;43.28;102748.88;5058392;28;19913;-55
2023/05/25 10:36:32;;;;;;;;;;;;;;;27.86;43.41;102748.72;5062085;28;19913;-54
2023/05/25 10:38:58;;;;;;;;;;;;;;;28.01;43.40;102752.63;5063628;28;19936;-54
2023/05/25 10:41:24;;;;;;;;;;;;;;;28.36;42.97;102751.13;5059942;28;19940;-51
2023/05/25 10:43:51;;;;;;;;;;;;;;;29.15;41.47;102753.72;5060021;28;19928;-50
2023/05/25 10:46:17;;;;;;;;;;;;;;;28.63;42.05;102747.34;5056476;28;19913;-54
2023/05/25 10:48:47;;;;;;;;;;;;;;;28.31;42.12;102754.72;5059678;28;20115;-56
2023/05/25 10:51:13;;;;;;;;;;;;;;;28.60;42.17;102753.38;5054418;28;19981;-57
2023/05/25 10:53:42;;;;;;;;;;;;;;;28.69;42.35;102748.16;5059740;28;19912;-56
2023/05/25 10:56:09;;;;;;;;;;;;;;;30.24;40.52;102755.41;5054425;28;19917;-54
2023/05/25 10:58:39;;;;;;;;;;;;;;;31.59;39.10;102749.66;5056695;28;19912;-52
2023/05/25 11:01:06;;;;;;;;;;;;;;;31.42;37.94;102753.72;5055762;28;19972;-56
2023/05/25 11:03:44;;;;;;;;;;;;;;;30.32;40.04;102755.63;5059758;28;19916;-54
2023/05/25 11:06:10;;;;;;;;;;;;;;;30.69;38.55;102756.28;5055509;28;19923;-57
2023/05/25 11:08:48;;;;;;;;;;;;;;;30.25;40.14;102754.31;5058617;28;19921;-55
2023/05/25 11:11:14;;;;;;;;;;;;;;;29.61;40.71;102747.34;5053021;28;19913;-58
2023/05/25 11:13:43;;;;;;;;;;;;;;;29.31;41.50;102746.28;5053899;28;19951;-56
2023/05/25 11:16:13;;;;;;;;;;;;;;;29.49;41.29;102738.56;5055196;28;20316;-58
2023/05/25 11:18:48;;;;;;;;;;;;;;;30.78;39.91;102750.94;5052293;28;19984;-57
2023/05/25 11:21:14;;;;;;;;;;;;;;;33.14;36.63;102749.44;5052390;28;19913;-59
2023/05/25 11:23:56;;;;;;;;;;;;;;;34.98;33.95;102752.47;5054459;28;19927;-56
2023/05/25 11:26:28;;;;;;;;;;;;;;;35.92;32.77;102753.50;5053925;28;19944;-59
2023/05/25 11:28:54;;;;;;;;;;;;;;;36.80;31.67;102757.19;5054304;28;19980;-58
2023/05/25 11:31:31;;;;;;;;;;;;;;;36.27;31.25;102756.38;5058007;28;19920;-57
2023/05/25 11:33:58;;;;;;;;;;;;;;;34.61;32.60;102749.78;5056790;28;19920;-59
2023/05/25 11:36:23;;;;;;;;;;;;;;;33.53;33.98;102742.66;5052221;28;20220;-59
2023/05/25 11:38:51;;;;;;;;;;;;;;;32.56;34.68;102741.22;5053792;28;19924;-58
2023/05/25 11:41:17;;;;;;;;;;;;;;;32.53;34.81;102736.28;5054007;28;19917;-57
2023/05/25 11:43:52;;;;;;;;;;;;;;;32.42;34.95;102738.41;5057900;28;19917;-59
2023/05/25 11:46:18;;;;;;;;;;;;;;;31.93;35.74;102723.03;5052448;28;19983;-60
2023/05/25 11:48:44;;;;;;;;;;;;;;;31.80;35.17;102717.06;5053409;28;19917;-64
2023/05/25 11:51:10;;;;;;;;;;;;;;;32.46;34.86;102725.59;5056247;28;19940;-56
2023/05/25 11:53:40;;;;;;;;;;;;;;;32.37;34.97;102721.03;5054573;28;19913;-56
2023/05/25 11:56:05;;;;;;;;;;;;;;;31.58;35.42;102720.38;5054359;28;20327;-57
2023/05/25 11:58:34;;;;;;;;;;;;;;;31.20;35.43;102712.78;5048673;28;19985;-56
2023/05/25 12:01:13;;;;;;;;;;;;;;;30.90;35.43;102712.75;5055562;28;19918;-58
2023/05/25 12:03:38;;;;;;;;;;;;;;;30.85;35.87;102709.19;5054830;28;19927;-55
2023/05/25 12:06:04;;;;;;;;;;;;;;;30.64;35.73;102706.59;5054955;28;19944;-56
2023/05/25 12:08:36;;;;;;;;;;;;;;;31.04;35.87;102707.34;5037508;28;19916;-56
2023/05/25 12:11:01;;;;;;;;;;;;;;;31.54;35.59;102714.59;5054803;28;19912;-57
2023/05/25 12:13:27;;;;;;;;;;;;;;;32.32;33.96;102711.69;5055401;28;19923;-59
2023/05/25 12:15:59;;;;;;;;;;;;;;;34.29;33.40;102710.78;5038654;28;19920;-59
2023/05/25 12:18:27;;;;;;;;;;;;;;;36.01;32.12;102707.84;5050502;28;19920;-57
2023/05/25 12:20:54;;;;;;;;;;;;;;;36.10;30.30;102715.41;5056511;28;19916;-58
2023/05/25 12:23:20;;;;;;;;;;;;;;;35.30;29.28;102715.22;5053784;28;19998;-59
2023/05/25 12:25:46;;;;;;;;;;;;;;;35.20;29.58;102718.25;5055905;28;19976;-57
2023/05/25 12:28:13;;;;;;;;;;;;;;;35.75;29.56;102716.16;5052594;28;19936;-56
2023/05/25 12:30:38;;;;;;;;;;;;;;;36.54;28.13;102712.63;5053183;28;19914;-57